sensor_id;sensor_type;location;lat;lon;timestamp;pressure;altitude;pressure_sealevel;temperature;humidity
72308;BME280;60257;42.638;23.376;2022-08-19T00:00:18;94358.88;;;22.15;52.60
72308;BME280;60257;42.638;23.376;2022-08-19T00:02:44;94358.34;;;22.03;53.30
72308;BME280;60257;42.638;23.376;2022-08-19T00:05:12;94358.75;;;22.02;53.42
72308;BME280;60257;42.638;23.376;2022-08-19T00:07:38;94362.75;;;22.01;53.45
72308;BME280;60257;42.638;23.376;2022-08-19T00:10:05;94364.75;;;22.00;53.36
72308;BME280;60257;42.638;23.376;2022-08-19T00:12:31;94365.94;;;21.99;53.71
72308;BME280;60257;42.638;23.376;2022-08-19T00:14:57;94359.25;;;21.97;53.91
72308;BME280;60257;42.638;23.376;2022-08-19T00:17:22;94354.25;;;21.88;54.01
72308;BME280;60257;42.638;23.376;2022-08-19T00:19:48;94365.88;;;21.83;54.47
72308;BME280;60257;42.638;23.376;2022-08-19T00:22:13;94371.06;;;21.81;54.00
72308;BME280;60257;42.638;23.376;2022-08-19T00:24:39;94374.78;;;21.75;54.36
72308;BME280;60257;42.638;23.376;2022-08-19T00:27:06;94376.50;;;21.69;55.15
72308;BME280;60257;42.638;23.376;2022-08-19T00:29:32;94381.69;;;21.67;55.27
72308;BME280;60257;42.638;23.376;2022-08-19T00:31:57;94379.00;;;21.63;55.30
72308;BME280;60257;42.638;23.376;2022-08-19T00:34:25;94373.56;;;21.56;55.64
72308;BME280;60257;42.638;23.376;2022-08-19T00:36:53;94370.88;;;21.52;55.45
72308;BME280;60257;42.638;23.376;2022-08-19T00:39:19;94370.88;;;21.52;55.53
72308;BME280;60257;42.638;23.376;2022-08-19T00:41:47;94371.72;;;21.49;56.08
72308;BME280;60257;42.638;23.376;2022-08-19T00:44:17;94368.66;;;21.44;56.25
72308;BME280;60257;42.638;23.376;2022-08-19T00:46:47;94373.50;;;21.40;56.46
72308;BME280;60257;42.638;23.376;2022-08-19T00:49:19;94366.22;;;21.46;56.33
72308;BME280;60257;42.638;23.376;2022-08-19T00:51:50;94362.81;;;21.58;55.66
72308;BME280;60257;42.638;23.376;2022-08-19T00:54:19;94362.16;;;21.50;55.95
72308;BME280;60257;42.638;23.376;2022-08-19T00:56:46;94364.22;;;21.27;56.78
72308;BME280;60257;42.638;23.376;2022-08-19T00:59:14;94352.88;;;21.17;57.26
72308;BME280;60257;42.638;23.376;2022-08-19T01:01:42;94360.09;;;21.11;57.40
72308;BME280;60257;42.638;23.376;2022-08-19T01:04:09;94360.94;;;21.08;57.08
72308;BME280;60257;42.638;23.376;2022-08-19T01:06:39;94358.84;;;21.16;57.34
72308;BME280;60257;42.638;23.376;2022-08-19T01:09:06;94371.59;;;21.13;57.06
72308;BME280;60257;42.638;23.376;2022-08-19T01:11:35;94367.22;;;21.12;56.64
72308;BME280;60257;42.638;23.376;2022-08-19T01:14:02;94359.75;;;21.09;57.02
72308;BME280;60257;42.638;23.376;2022-08-19T01:16:29;94364.91;;;21.07;57.03
72308;BME280;60257;42.638;23.376;2022-08-19T01:18:55;94357.44;;;21.04;56.60
72308;BME280;60257;42.638;23.376;2022-08-19T01:21:27;94361.66;;;21.12;56.11
72308;BME280;60257;42.638;23.376;2022-08-19T01:23:54;94363.19;;;21.17;55.87
72308;BME280;60257;42.638;23.376;2022-08-19T01:26:22;94357.22;;;21.18;56.04
72308;BME280;60257;42.638;23.376;2022-08-19T01:28:52;94356.50;;;21.14;55.81
72308;BME280;60257;42.638;23.376;2022-08-19T01:31:21;94355.72;;;21.14;55.75
72308;BME280;60257;42.638;23.376;2022-08-19T01:33:48;94358.09;;;21.12;55.70
72308;BME280;60257;42.638;23.376;2022-08-19T01:36:21;94359.66;;;21.13;55.66
72308;BME280;60257;42.638;23.376;2022-08-19T01:38:47;94364.50;;;21.09;56.03
72308;BME280;60257;42.638;23.376;2022-08-19T01:41:13;94368.56;;;21.04;56.34
72308;BME280;60257;42.638;23.376;2022-08-19T01:43:39;94373.63;;;21.09;56.19
72308;BME280;60257;42.638;23.376;2022-08-19T01:46:05;94361.06;;;21.01;56.59
72308;BME280;60257;42.638;23.376;2022-08-19T01:48:39;94362.88;;;21.11;56.50
72308;BME280;60257;42.638;23.376;2022-08-19T01:51:05;94358.50;;;20.91;57.03
72308;BME280;60257;42.638;23.376;2022-08-19T01:53:31;94352.50;;;20.69;57.74
72308;BME280;60257;42.638;23.376;2022-08-19T01:55:57;94364.31;;;20.73;57.63
72308;BME280;60257;42.638;23.376;2022-08-19T01:58:32;94364.47;;;20.66;57.67
72308;BME280;60257;42.638;23.376;2022-08-19T02:01:02;94356.72;;;20.54;58.15
72308;BME280;60257;42.638;23.376;2022-08-19T02:03:28;94356.06;;;20.46;58.31
72308;BME280;60257;42.638;23.376;2022-08-19T02:05:59;94348.59;;;20.40;58.58
72308;BME280;60257;42.638;23.376;2022-08-19T02:08:27;94358.75;;;20.50;58.44
72308;BME280;60257;42.638;23.376;2022-08-19T02:10:53;94360.91;;;20.39;58.66
72308;BME280;60257;42.638;23.376;2022-08-19T02:13:19;94353.81;;;20.38;58.84
72308;BME280;60257;42.638;23.376;2022-08-19T02:15:44;94363.13;;;20.51;58.40
72308;BME280;60257;42.638;23.376;2022-08-19T02:18:10;94358.88;;;20.43;59.00
72308;BME280;60257;42.638;23.376;2022-08-19T02:20:37;94370.81;;;20.40;59.30
72308;BME280;60257;42.638;23.376;2022-08-19T02:23:04;94359.03;;;20.28;59.33
72308;BME280;60257;42.638;23.376;2022-08-19T02:25:29;94368.16;;;20.33;59.38
72308;BME280;60257;42.638;23.376;2022-08-19T02:27:55;94359.03;;;20.28;59.58
72308;BME280;60257;42.638;23.376;2022-08-19T02:30:21;94367.38;;;20.28;59.86
72308;BME280;60257;42.638;23.376;2022-08-19T02:32:47;94368.22;;;20.25;60.11
72308;BME280;60257;42.638;23.376;2022-08-19T02:35:13;94373.84;;;20.18;60.09
72308;BME280;60257;42.638;23.376;2022-08-19T02:37:40;94367.22;;;20.12;60.26
72308;BME280;60257;42.638;23.376;2022-08-19T02:40:24;94368.81;;;20.13;60.47
72308;BME280;60257;42.638;23.376;2022-08-19T02:42:50;94370.41;;;20.11;60.03
72308;BME280;60257;42.638;23.376;2022-08-19T02:45:15;94375.22;;;20.07;60.19
72308;BME280;60257;42.638;23.376;2022-08-19T02:47:41;94375.56;;;20.09;60.45
72308;BME280;60257;42.638;23.376;2022-08-19T02:50:08;94381.91;;;20.09;60.11
72308;BME280;60257;42.638;23.376;2022-08-19T02:52:33;94376.38;;;20.09;59.86
72308;BME280;60257;42.638;23.376;2022-08-19T02:54:59;94370.09;;;20.05;60.37
72308;BME280;60257;42.638;23.376;2022-08-19T02:57:26;94380.38;;;20.08;60.36
72308;BME280;60257;42.638;23.376;2022-08-19T02:59:53;94384.22;;;20.14;59.56
72308;BME280;60257;42.638;23.376;2022-08-19T03:02:19;94384.28;;;20.11;59.75
72308;BME280;60257;42.638;23.376;2022-08-19T03:04:45;94381.19;;;20.05;60.04
72308;BME280;60257;42.638;23.376;2022-08-19T03:07:15;94376.94;;;19.97;60.29
72308;BME280;60257;42.638;23.376;2022-08-19T03:09:41;94371.19;;;20.11;59.46
72308;BME280;60257;42.638;23.376;2022-08-19T03:12:10;94380.78;;;20.07;59.12
72308;BME280;60257;42.638;23.376;2022-08-19T03:14:36;94379.72;;;19.97;59.78
72308;BME280;60257;42.638;23.376;2022-08-19T03:17:03;94372.22;;;19.94;60.15
72308;BME280;60257;42.638;23.376;2022-08-19T03:19:30;94366.38;;;19.88;60.67
72308;BME280;60257;42.638;23.376;2022-08-19T03:21:57;94365.59;;;19.84;60.56
72308;BME280;60257;42.638;23.376;2022-08-19T03:24:23;94368.03;;;19.82;60.43
72308;BME280;60257;42.638;23.376;2022-08-19T03:26:51;94366.03;;;19.83;60.51
72308;BME280;60257;42.638;23.376;2022-08-19T03:29:18;94363.16;;;19.90;60.68
72308;BME280;60257;42.638;23.376;2022-08-19T03:31:45;94363.88;;;19.94;60.49
72308;BME280;60257;42.638;23.376;2022-08-19T03:34:16;94373.56;;;19.82;60.60
72308;BME280;60257;42.638;23.376;2022-08-19T03:36:43;94370.94;;;19.72;61.19
72308;BME280;60257;42.638;23.376;2022-08-19T03:39:09;94373.78;;;19.65;61.54
72308;BME280;60257;42.638;23.376;2022-08-19T03:41:41;94379.97;;;19.76;61.17
72308;BME280;60257;42.638;23.376;2022-08-19T03:44:06;94375.97;;;19.80;61.10
72308;BME280;60257;42.638;23.376;2022-08-19T03:46:34;94383.22;;;19.71;60.92
72308;BME280;60257;42.638;23.376;2022-08-19T03:49:01;94385.28;;;19.63;61.56
72308;BME280;60257;42.638;23.376;2022-08-19T03:51:34;94391.56;;;19.67;61.68
72308;BME280;60257;42.638;23.376;2022-08-19T03:54:03;94384.84;;;19.68;61.24
72308;BME280;60257;42.638;23.376;2022-08-19T03:56:29;94400.63;;;19.71;61.30
72308;BME280;60257;42.638;23.376;2022-08-19T03:58:57;94395.91;;;19.68;61.37
72308;BME280;60257;42.638;23.376;2022-08-19T04:01:25;94399.03;;;19.70;61.54
72308;BME280;60257;42.638;23.376;2022-08-19T04:03:55;94408.16;;;19.71;61.36
72308;BME280;60257;42.638;23.376;2022-08-19T04:06:26;94416.00;;;19.76;60.85
72308;BME280;60257;42.638;23.376;2022-08-19T04:08:54;94414.41;;;19.78;60.78
72308;BME280;60257;42.638;23.376;2022-08-19T04:11:22;94414.03;;;19.76;61.12
72308;BME280;60257;42.638;23.376;2022-08-19T04:13:50;94415.09;;;19.86;60.78
72308;BME280;60257;42.638;23.376;2022-08-19T04:16:17;94407.94;;;19.88;61.20
72308;BME280;60257;42.638;23.376;2022-08-19T04:18:44;94413.06;;;19.90;60.51
72308;BME280;60257;42.638;23.376;2022-08-19T04:21:16;94419.66;;;20.03;60.56
72308;BME280;60257;42.638;23.376;2022-08-19T04:23:41;94419.91;;;20.12;59.64
72308;BME280;60257;42.638;23.376;2022-08-19T04:26:07;94423.94;;;20.08;60.12
72308;BME280;60257;42.638;23.376;2022-08-19T04:28:37;94432.59;;;20.13;60.01
72308;BME280;60257;42.638;23.376;2022-08-19T04:31:02;94430.81;;;20.26;59.61
72308;BME280;60257;42.638;23.376;2022-08-19T04:33:28;94422.06;;;20.31;59.15
72308;BME280;60257;42.638;23.376;2022-08-19T04:35:53;94422.25;;;20.44;59.42
72308;BME280;60257;42.638;23.376;2022-08-19T04:38:21;94420.66;;;20.47;59.09
72308;BME280;60257;42.638;23.376;2022-08-19T04:40:50;94418.94;;;20.56;59.15
72308;BME280;60257;42.638;23.376;2022-08-19T04:43:36;94415.25;;;20.63;59.16
72308;BME280;60257;42.638;23.376;2022-08-19T04:46:10;94418.31;;;20.72;59.17
72308;BME280;60257;42.638;23.376;2022-08-19T04:48:36;94424.63;;;20.72;59.26
72308;BME280;60257;42.638;23.376;2022-08-19T04:51:07;94413.22;;;20.67;59.83
72308;BME280;60257;42.638;23.376;2022-08-19T04:53:34;94419.91;;;20.69;59.59
72308;BME280;60257;42.638;23.376;2022-08-19T04:56:06;94420.22;;;20.75;60.12
72308;BME280;60257;42.638;23.376;2022-08-19T04:58:33;94420.38;;;20.91;59.79
72308;BME280;60257;42.638;23.376;2022-08-19T05:00:59;94418.84;;;20.87;59.56
72308;BME280;60257;42.638;23.376;2022-08-19T05:03:25;94422.66;;;20.96;60.08
72308;BME280;60257;42.638;23.376;2022-08-19T05:05:51;94428.41;;;21.09;59.27
72308;BME280;60257;42.638;23.376;2022-08-19T05:08:19;94423.09;;;21.18;59.30
72308;BME280;60257;42.638;23.376;2022-08-19T05:10:50;94430.06;;;21.30;58.79
72308;BME280;60257;42.638;23.376;2022-08-19T05:13:18;94433.13;;;21.35;58.57
72308;BME280;60257;42.638;23.376;2022-08-19T05:15:44;94426.56;;;21.45;58.41
72308;BME280;60257;42.638;23.376;2022-08-19T05:18:18;94424.25;;;21.44;58.55
72308;BME280;60257;42.638;23.376;2022-08-19T05:21:07;94421.38;;;21.47;58.32
72308;BME280;60257;42.638;23.376;2022-08-19T05:23:51;94421.34;;;21.71;57.57
72308;BME280;60257;42.638;23.376;2022-08-19T05:26:17;94432.75;;;21.76;57.95
72308;BME280;60257;42.638;23.376;2022-08-19T05:28:43;94423.91;;;21.81;58.15
72308;BME280;60257;42.638;23.376;2022-08-19T05:31:08;94428.06;;;21.93;57.53
72308;BME280;60257;42.638;23.376;2022-08-19T05:33:33;94433.94;;;21.98;57.38
72308;BME280;60257;42.638;23.376;2022-08-19T05:36:01;94432.16;;;22.08;57.10
72308;BME280;60257;42.638;23.376;2022-08-19T05:38:26;94429.50;;;22.21;57.58
72308;BME280;60257;42.638;23.376;2022-08-19T05:40:52;94429.28;;;22.31;56.76
72308;BME280;60257;42.638;23.376;2022-08-19T05:43:17;94435.75;;;22.44;56.05
72308;BME280;60257;42.638;23.376;2022-08-19T05:45:44;94428.59;;;22.79;53.98
72308;BME280;60257;42.638;23.376;2022-08-19T05:48:11;94440.44;;;22.83;54.72
72308;BME280;60257;42.638;23.376;2022-08-19T05:50:38;94430.00;;;22.87;54.38
72308;BME280;60257;42.638;23.376;2022-08-19T05:53:04;94431.66;;;22.85;53.37
72308;BME280;60257;42.638;23.376;2022-08-19T05:55:30;94432.91;;;23.00;54.15
72308;BME280;60257;42.638;23.376;2022-08-19T05:57:56;94434.03;;;23.19;53.49
72308;BME280;60257;42.638;23.376;2022-08-19T06:00:22;94430.19;;;23.29;52.52
72308;BME280;60257;42.638;23.376;2022-08-19T06:02:48;94426.34;;;23.39;53.11
72308;BME280;60257;42.638;23.376;2022-08-19T06:05:14;94432.78;;;23.52;52.39
72308;BME280;60257;42.638;23.376;2022-08-19T06:07:39;94440.09;;;23.62;52.39
72308;BME280;60257;42.638;23.376;2022-08-19T06:10:07;94431.34;;;23.77;52.00
72308;BME280;60257;42.638;23.376;2022-08-19T06:12:34;94435.75;;;23.90;51.26
72308;BME280;60257;42.638;23.376;2022-08-19T06:15:12;94432.41;;;23.95;51.50
72308;BME280;60257;42.638;23.376;2022-08-19T06:17:38;94435.81;;;24.03;52.12
72308;BME280;60257;42.638;23.376;2022-08-19T06:20:07;94439.28;;;24.07;51.89
72308;BME280;60257;42.638;23.376;2022-08-19T06:22:38;94439.09;;;24.14;51.02
72308;BME280;60257;42.638;23.376;2022-08-19T06:25:04;94446.28;;;24.28;49.52
72308;BME280;60257;42.638;23.376;2022-08-19T06:27:30;94444.28;;;24.28;49.66
72308;BME280;60257;42.638;23.376;2022-08-19T06:29:57;94442.16;;;24.32;50.26
72308;BME280;60257;42.638;23.376;2022-08-19T06:32:22;94439.19;;;24.52;49.58
72308;BME280;60257;42.638;23.376;2022-08-19T06:34:47;94441.31;;;24.60;49.73
72308;BME280;60257;42.638;23.376;2022-08-19T06:37:14;94447.91;;;24.67;50.05
72308;BME280;60257;42.638;23.376;2022-08-19T06:39:41;94440.44;;;24.76;49.52
72308;BME280;60257;42.638;23.376;2022-08-19T06:42:08;94439.25;;;24.90;49.28
72308;BME280;60257;42.638;23.376;2022-08-19T06:44:39;94444.91;;;24.86;49.22
72308;BME280;60257;42.638;23.376;2022-08-19T06:47:07;94436.53;;;24.86;49.14
72308;BME280;60257;42.638;23.376;2022-08-19T06:49:33;94440.16;;;24.87;49.13
72308;BME280;60257;42.638;23.376;2022-08-19T06:52:00;94442.81;;;24.90;49.58
72308;BME280;60257;42.638;23.376;2022-08-19T06:54:26;94439.25;;;24.90;49.80
72308;BME280;60257;42.638;23.376;2022-08-19T06:56:53;94434.97;;;24.98;49.83
72308;BME280;60257;42.638;23.376;2022-08-19T06:59:21;94440.22;;;25.09;48.98
72308;BME280;60257;42.638;23.376;2022-08-19T07:01:50;94439.66;;;25.14;49.10
72308;BME280;60257;42.638;23.376;2022-08-19T07:04:18;94447.06;;;25.20;49.03
72308;BME280;60257;42.638;23.376;2022-08-19T07:06:44;94452.19;;;25.34;48.56
72308;BME280;60257;42.638;23.376;2022-08-19T07:09:12;94445.00;;;25.46;47.73
72308;BME280;60257;42.638;23.376;2022-08-19T07:11:38;94450.59;;;25.46;47.96
72308;BME280;60257;42.638;23.376;2022-08-19T07:14:04;94459.19;;;25.64;47.20
72308;BME280;60257;42.638;23.376;2022-08-19T07:16:30;94456.84;;;25.63;46.80
72308;BME280;60257;42.638;23.376;2022-08-19T07:18:56;94443.97;;;25.53;47.40
72308;BME280;60257;42.638;23.376;2022-08-19T07:21:24;94455.63;;;25.64;46.72
72308;BME280;60257;42.638;23.376;2022-08-19T07:23:53;94455.13;;;25.78;46.42
72308;BME280;60257;42.638;23.376;2022-08-19T07:26:26;94457.25;;;25.74;46.39
72308;BME280;60257;42.638;23.376;2022-08-19T07:28:52;94453.56;;;25.77;46.26
72308;BME280;60257;42.638;23.376;2022-08-19T07:31:21;94448.28;;;25.79;46.65
72308;BME280;60257;42.638;23.376;2022-08-19T07:33:48;94445.81;;;25.81;46.42
72308;BME280;60257;42.638;23.376;2022-08-19T07:36:16;94451.31;;;25.72;46.15
72308;BME280;60257;42.638;23.376;2022-08-19T07:38:46;94446.81;;;25.87;45.87
72308;BME280;60257;42.638;23.376;2022-08-19T07:41:21;94447.34;;;25.95;45.39
72308;BME280;60257;42.638;23.376;2022-08-19T07:43:48;94447.06;;;26.02;45.27
72308;BME280;60257;42.638;23.376;2022-08-19T07:46:15;94448.19;;;26.69;43.58
72308;BME280;60257;42.638;23.376;2022-08-19T07:48:43;94440.84;;;26.41;44.46
72308;BME280;60257;42.638;23.376;2022-08-19T07:51:13;94442.19;;;26.27;44.52
72308;BME280;60257;42.638;23.376;2022-08-19T07:53:38;94448.56;;;26.28;44.63
72308;BME280;60257;42.638;23.376;2022-08-19T07:56:04;94440.66;;;26.36;45.01
72308;BME280;60257;42.638;23.376;2022-08-19T07:58:36;94450.50;;;26.40;44.55
72308;BME280;60257;42.638;23.376;2022-08-19T08:01:03;94446.66;;;26.47;44.89
72308;BME280;60257;42.638;23.376;2022-08-19T08:03:29;94451.53;;;26.55;44.17
72308;BME280;60257;42.638;23.376;2022-08-19T08:06:14;94457.66;;;26.63;43.87
72308;BME280;60257;42.638;23.376;2022-08-19T08:09:00;94444.28;;;26.67;43.80
72308;BME280;60257;42.638;23.376;2022-08-19T08:11:38;94442.66;;;27.19;42.85
72308;BME280;60257;42.638;23.376;2022-08-19T08:14:05;94448.88;;;27.53;41.22
72308;BME280;60257;42.638;23.376;2022-08-19T08:16:36;94437.06;;;27.28;42.34
72308;BME280;60257;42.638;23.376;2022-08-19T08:19:08;94438.63;;;27.20;42.34
72308;BME280;60257;42.638;23.376;2022-08-19T08:21:34;94432.38;;;27.15;42.16
72308;BME280;60257;42.638;23.376;2022-08-19T08:23:59;94441.44;;;27.29;42.13
72308;BME280;60257;42.638;23.376;2022-08-19T08:26:25;94423.47;;;27.57;40.27
72308;BME280;60257;42.638;23.376;2022-08-19T08:28:51;94423.13;;;27.46;41.17
72308;BME280;60257;42.638;23.376;2022-08-19T08:31:18;94441.03;;;27.48;41.75
72308;BME280;60257;42.638;23.376;2022-08-19T08:33:46;94431.72;;;27.51;41.84
72308;BME280;60257;42.638;23.376;2022-08-19T08:36:13;94429.56;;;27.55;41.48
72308;BME280;60257;42.638;23.376;2022-08-19T08:38:40;94432.22;;;27.95;41.01
72308;BME280;60257;42.638;23.376;2022-08-19T08:43:40;94428.34;;;28.20;39.17
72308;BME280;60257;42.638;23.376;2022-08-19T08:46:14;94421.91;;;28.56;38.13
72308;BME280;60257;42.638;23.376;2022-08-19T08:48:53;94415.31;;;28.68;37.52
72308;BME280;60257;42.638;23.376;2022-08-19T08:51:36;94412.84;;;28.52;38.55
72308;BME280;60257;42.638;23.376;2022-08-19T08:54:06;94416.31;;;28.47;37.57
72308;BME280;60257;42.638;23.376;2022-08-19T08:56:33;94414.75;;;28.46;37.64
72308;BME280;60257;42.638;23.376;2022-08-19T08:59:05;94411.47;;;28.48;37.85
72308;BME280;60257;42.638;23.376;2022-08-19T09:01:33;94409.56;;;28.63;37.71
72308;BME280;60257;42.638;23.376;2022-08-19T09:04:03;94400.63;;;28.64;36.88
72308;BME280;60257;42.638;23.376;2022-08-19T09:06:55;94408.28;;;28.82;34.98
72308;BME280;60257;42.638;23.376;2022-08-19T09:14:53;94396.16;;;29.00;34.99
72308;BME280;60257;42.638;23.376;2022-08-19T09:17:24;94394.00;;;29.27;33.59
72308;BME280;60257;42.638;23.376;2022-08-19T09:20:29;94391.50;;;29.29;33.76
72308;BME280;60257;42.638;23.376;2022-08-19T09:22:56;94393.88;;;29.31;34.01
72308;BME280;60257;42.638;23.376;2022-08-19T09:25:22;94390.28;;;29.21;34.49
72308;BME280;60257;42.638;23.376;2022-08-19T09:27:49;94390.56;;;29.23;34.85
72308;BME280;60257;42.638;23.376;2022-08-19T09:30:18;94388.00;;;29.44;32.81
72308;BME280;60257;42.638;23.376;2022-08-19T09:32:46;94385.44;;;29.55;32.10
72308;BME280;60257;42.638;23.376;2022-08-19T09:35:13;94370.22;;;29.61;31.61
72308;BME280;60257;42.638;23.376;2022-08-19T09:37:39;94374.31;;;29.99;30.80
72308;BME280;60257;42.638;23.376;2022-08-19T09:40:05;94375.28;;;29.96;30.65
72308;BME280;60257;42.638;23.376;2022-08-19T09:42:32;94367.44;;;29.76;31.25
72308;BME280;60257;42.638;23.376;2022-08-19T09:44:59;94375.69;;;29.80;31.52
72308;BME280;60257;42.638;23.376;2022-08-19T09:47:24;94374.84;;;29.88;30.98
72308;BME280;60257;42.638;23.376;2022-08-19T09:49:50;94376.47;;;30.04;30.79
72308;BME280;60257;42.638;23.376;2022-08-19T09:52:16;94366.38;;;30.27;30.44
72308;BME280;60257;42.638;23.376;2022-08-19T09:54:41;94371.22;;;30.11;30.30
72308;BME280;60257;42.638;23.376;2022-08-19T09:57:07;94370.44;;;30.11;30.85
72308;BME280;60257;42.638;23.376;2022-08-19T09:59:33;94366.75;;;30.05;30.67
72308;BME280;60257;42.638;23.376;2022-08-19T10:01:58;94369.66;;;30.10;30.17
72308;BME280;60257;42.638;23.376;2022-08-19T10:04:24;94358.06;;;30.62;29.98
72308;BME280;60257;42.638;23.376;2022-08-19T10:07:10;94352.59;;;30.87;29.10
72308;BME280;60257;42.638;23.376;2022-08-19T10:09:36;94354.31;;;30.99;29.35
72308;BME280;60257;42.638;23.376;2022-08-19T10:12:03;94348.88;;;31.11;28.92
72308;BME280;60257;42.638;23.376;2022-08-19T10:14:30;94344.31;;;30.84;30.93
72308;BME280;60257;42.638;23.376;2022-08-19T10:16:56;94346.56;;;30.65;30.71
72308;BME280;60257;42.638;23.376;2022-08-19T10:19:22;94342.22;;;30.79;29.55
72308;BME280;60257;42.638;23.376;2022-08-19T10:21:47;94344.19;;;31.22;29.85
72308;BME280;60257;42.638;23.376;2022-08-19T10:24:13;94342.91;;;31.44;28.17
72308;BME280;60257;42.638;23.376;2022-08-19T10:26:40;94336.88;;;31.16;28.52
72308;BME280;60257;42.638;23.376;2022-08-19T10:29:10;94345.56;;;31.12;28.29
72308;BME280;60257;42.638;23.376;2022-08-19T10:31:37;94342.78;;;30.83;28.85
72308;BME280;60257;42.638;23.376;2022-08-19T10:34:03;94336.25;;;30.77;29.46
72308;BME280;60257;42.638;23.376;2022-08-19T10:36:36;94335.28;;;30.80;29.33
72308;BME280;60257;42.638;23.376;2022-08-19T10:39:05;94329.69;;;31.00;28.82
72308;BME280;60257;42.638;23.376;2022-08-19T10:41:34;94330.06;;;31.42;28.24
72308;BME280;60257;42.638;23.376;2022-08-19T10:44:05;94330.50;;;31.35;28.36
72308;BME280;60257;42.638;23.376;2022-08-19T10:46:32;94336.78;;;31.45;28.55
72308;BME280;60257;42.638;23.376;2022-08-19T10:48:59;94339.91;;;31.67;28.02
72308;BME280;60257;42.638;23.376;2022-08-19T10:51:25;94331.63;;;31.44;27.96
72308;BME280;60257;42.638;23.376;2022-08-19T10:54:09;94338.41;;;31.52;28.13
72308;BME280;60257;42.638;23.376;2022-08-19T10:56:35;94332.31;;;31.38;28.70
72308;BME280;60257;42.638;23.376;2022-08-19T11:01:45;94322.28;;;31.37;27.79
72308;BME280;60257;42.638;23.376;2022-08-19T11:04:12;94317.94;;;31.77;28.00
72308;BME280;60257;42.638;23.376;2022-08-19T11:06:42;94317.66;;;31.75;27.59
72308;BME280;60257;42.638;23.376;2022-08-19T11:09:09;94320.34;;;31.64;28.40
72308;BME280;60257;42.638;23.376;2022-08-19T11:11:37;94319.78;;;31.60;27.77
72308;BME280;60257;42.638;23.376;2022-08-19T11:14:13;94324.75;;;31.65;27.57
72308;BME280;60257;42.638;23.376;2022-08-19T11:16:39;94317.25;;;31.62;27.88
72308;BME280;60257;42.638;23.376;2022-08-19T11:19:07;94312.38;;;31.62;27.42
72308;BME280;60257;42.638;23.376;2022-08-19T11:21:39;94317.25;;;31.62;27.88
72308;BME280;60257;42.638;23.376;2022-08-19T11:24:14;94312.63;;;32.05;27.13
72308;BME280;60257;42.638;23.376;2022-08-19T11:26:41;94317.75;;;32.06;27.19
72308;BME280;60257;42.638;23.376;2022-08-19T11:29:10;94307.31;;;31.92;27.24
72308;BME280;60257;42.638;23.376;2022-08-19T11:31:37;94302.22;;;31.96;27.54
72308;BME280;60257;42.638;23.376;2022-08-19T11:34:05;94299.19;;;32.00;27.18
72308;BME280;60257;42.638;23.376;2022-08-19T11:36:33;94299.56;;;31.87;27.53
72308;BME280;60257;42.638;23.376;2022-08-19T11:38:59;94291.94;;;31.73;27.91
72308;BME280;60257;42.638;23.376;2022-08-19T11:41:25;94287.88;;;31.74;28.37
72308;BME280;60257;42.638;23.376;2022-08-19T11:43:52;94282.72;;;32.18;27.31
72308;BME280;60257;42.638;23.376;2022-08-19T11:46:22;94279.25;;;32.09;27.28
72308;BME280;60257;42.638;23.376;2022-08-19T11:48:48;94284.75;;;32.18;27.08
72308;BME280;60257;42.638;23.376;2022-08-19T11:51:21;94286.78;;;32.43;26.92
72308;BME280;60257;42.638;23.376;2022-08-19T11:53:47;94283.38;;;32.34;26.79
72308;BME280;60257;42.638;23.376;2022-08-19T11:56:14;94284.69;;;32.12;29.86
72308;BME280;60257;42.638;23.376;2022-08-19T11:58:40;94276.34;;;32.23;27.61
72308;BME280;60257;42.638;23.376;2022-08-19T12:01:15;94272.66;;;32.43;27.39
72308;BME280;60257;42.638;23.376;2022-08-19T12:03:41;94267.34;;;32.25;28.82
72308;BME280;60257;42.638;23.376;2022-08-19T12:06:10;94271.41;;;32.18;27.69
72308;BME280;60257;42.638;23.376;2022-08-19T12:08:38;94272.25;;;32.24;27.68
72308;BME280;60257;42.638;23.376;2022-08-19T12:11:04;94263.28;;;32.32;27.38
72308;BME280;60257;42.638;23.376;2022-08-19T12:13:30;94262.19;;;32.55;27.09
72308;BME280;60257;42.638;23.376;2022-08-19T12:15:56;94256.25;;;32.84;26.46
72308;BME280;60257;42.638;23.376;2022-08-19T12:18:22;94258.56;;;32.80;26.67
72308;BME280;60257;42.638;23.376;2022-08-19T12:20:50;94254.66;;;32.72;26.81
72308;BME280;60257;42.638;23.376;2022-08-19T12:23:16;94253.25;;;32.62;26.69
72308;BME280;60257;42.638;23.376;2022-08-19T12:25:47;94252.44;;;32.56;27.00
72308;BME280;60257;42.638;23.376;2022-08-19T12:28:21;94242.06;;;32.73;26.64
72308;BME280;60257;42.638;23.376;2022-08-19T12:30:48;94235.81;;;33.06;26.31
72308;BME280;60257;42.638;23.376;2022-08-19T12:33:19;94226.81;;;33.07;26.54
72308;BME280;60257;42.638;23.376;2022-08-19T12:35:45;94235.03;;;33.05;26.17
72308;BME280;60257;42.638;23.376;2022-08-19T12:38:13;94234.97;;;32.94;27.22
72308;BME280;60257;42.638;23.376;2022-08-19T12:40:39;94223.84;;;32.85;27.21
72308;BME280;60257;42.638;23.376;2022-08-19T12:43:08;94220.28;;;32.90;27.59
72308;BME280;60257;42.638;23.376;2022-08-19T12:45:34;94227.53;;;32.97;27.72
72308;BME280;60257;42.638;23.376;2022-08-19T12:48:00;94222.97;;;33.10;27.58
72308;BME280;60257;42.638;23.376;2022-08-19T12:50:25;94214.75;;;33.13;27.13
72308;BME280;60257;42.638;23.376;2022-08-19T12:52:51;94222.69;;;33.57;25.72
72308;BME280;60257;42.638;23.376;2022-08-19T12:55:18;94216.50;;;33.64;25.58
72308;BME280;60257;42.638;23.376;2022-08-19T12:57:44;94217.25;;;33.53;25.84
72308;BME280;60257;42.638;23.376;2022-08-19T13:00:13;94217.44;;;33.38;26.77
72308;BME280;60257;42.638;23.376;2022-08-19T13:02:40;94220.69;;;33.74;25.90
72308;BME280;60257;42.638;23.376;2022-08-19T13:05:08;94212.69;;;33.72;25.28